Meteo Giornale » Osservazioni meteo Italia » Brescia-Ghedi

ore: 08:55 - Osservazioni Meteo Brescia-Ghedi
Lat. 45° 25' N Lon. 10° 17' E Alt. 102 metri s.l.m.

foschia Europe/Rome

-0 °C

Foschia

Temp. 24 Ore

-2 °C

9 °C

Nord

1.8 Km/h

Dew point -0 °C

Umidità 100 %

Visibilità  4 Km

Il sole sorge alle ore 07:46

Il sole tramonta alle ore 17:15

Data e Ora Cielo e Fenomeni T °C DP °C Um. % Pres. hPa Vis. km Vento km/h
Oggi h: 08:55 foschia Foschia -0 -0 100 1025 4 N 1.8
Oggi h: 07:55 foschia Foschia -2 -2 100 1025 4 N 1.8
Oggi h: 06:55 foschia Foschia -2 -2 100 1026 4 N 1.8
Oggi h: 04:55 sereno Sereno -1 -2 92 1027 6 N 1.8
Oggi h: 03:55 sereno Sereno -1 -1 100 1027 6 N 1.8
Oggi h: 02:55 sereno Sereno -1 -1 100 1027 6 N 1.8
Oggi h: 01:55 sereno Sereno -1 -1 100 1027 6 N 3.7
Ieri h: 23:55 sereno Sereno 0 -0 100 1028 6 N 3.7
Ieri h: 22:55 sereno Sereno 0 -0 100 1028 6 N 3.7
Ieri h: 21:55 sereno Sereno 0 0 100 1029 6 N 7.4
Ieri h: 20:55 foschia Foschia 1 0 93 1029 5 N 7.4
Ieri h: 19:55 foschia Foschia 2 1 93 1029 5 N 1.8
Ieri h: 18:55 foschia Foschia 4 2 86 1029 5 N 1.8
Ieri h: 17:55 foschia Foschia 5 1 75 1029 5 N 3.7
Ieri h: 16:55 sereno Sereno 8 2 65 1029 6 N 3.7
Ieri h: 14:55 sereno Sereno 9 2 61 1030 10 S/SO 7.4
Ieri h: 12:55 sereno Sereno 7 0 60 1031 10 N 3.7
Ieri h: 11:55 sereno Sereno 7 1 65 1031 10 N 3.7
Ieri h: 10:55 sereno Sereno 5 1 75 1031 10 N 3.7
Ieri h: 09:55 sereno Sereno 2 0 86 1031 10 N 7.4
Ieri h: 08:55 sereno Sereno -1 -2 92 1030 10 N 7.4